sensor_id;sensor_type;location;lat;lon;timestamp;P1;durP1;ratioP1;P2;durP2;ratioP2
74483;SDS011;62942;52.462;10.846;2022-11-13T00:00:30;48.8;;;78;;
74483;SDS011;62942;52.462;10.846;2022-11-13T00:01:30;49.4;;;79.9;;
74483;SDS011;62942;52.462;10.846;2022-11-13T00:02:40;49.1;;;79.8;;
74483;SDS011;62942;52.462;10.846;2022-11-13T00:03:50;48.8;;;77;;
74483;SDS011;62942;52.462;10.846;2022-11-13T00:05:00;47.9;;;77.1;;
74483;SDS011;62942;52.462;10.846;2022-11-13T00:06:10;48.4;;;77.9;;
74483;SDS011;62942;52.462;10.846;2022-11-13T00:07:10;48.1;;;77.2;;
74483;SDS011;62942;52.462;10.846;2022-11-13T00:08:20;48.3;;;75.2;;
74483;SDS011;62942;52.462;10.846;2022-11-13T00:09:30;48;;;77.5;;
74483;SDS011;62942;52.462;10.846;2022-11-13T00:10:40;47.8;;;76.9;;
74483;SDS011;62942;52.462;10.846;2022-11-13T00:11:50;47.6;;;74.5;;
74483;SDS011;62942;52.462;10.846;2022-11-13T00:13:00;48.2;;;76.1;;
74483;SDS011;62942;52.462;10.846;2022-11-13T00:14:10;48.2;;;76.1;;
74483;SDS011;62942;52.462;10.846;2022-11-13T00:15:20;48;;;75.9;;
74483;SDS011;62942;52.462;10.846;2022-11-13T00:16:30;48;;;76.7;;
74483;SDS011;62942;52.462;10.846;2022-11-13T00:17:40;48.3;;;77.3;;
74483;SDS011;62942;52.462;10.846;2022-11-13T00:18:50;48.5;;;77.8;;
74483;SDS011;62942;52.462;10.846;2022-11-13T00:20:00;48.8;;;78.7;;
74483;SDS011;62942;52.462;10.846;2022-11-13T00:21:11;48.7;;;79.7;;
74483;SDS011;62942;52.462;10.846;2022-11-13T00:22:20;47.4;;;73.3;;
74483;SDS011;62942;52.462;10.846;2022-11-13T00:23:30;48.6;;;76.3;;
74483;SDS011;62942;52.462;10.846;2022-11-13T00:24:40;47.7;;;75.8;;
74483;SDS011;62942;52.462;10.846;2022-11-13T00:25:40;48.7;;;78.8;;
74483;SDS011;62942;52.462;10.846;2022-11-13T00:26:50;48.6;;;79.2;;
74483;SDS011;62942;52.462;10.846;2022-11-13T00:28:00;47.8;;;78.9;;
74483;SDS011;62942;52.462;10.846;2022-11-13T00:29:10;48.5;;;76.7;;
74483;SDS011;62942;52.462;10.846;2022-11-13T00:30:10;48.8;;;75.7;;
74483;SDS011;62942;52.462;10.846;2022-11-13T00:31:20;48.5;;;81.4;;
74483;SDS011;62942;52.462;10.846;2022-11-13T00:32:30;47.2;;;75.5;;
74483;SDS011;62942;52.462;10.846;2022-11-13T00:33:30;48.8;;;76.1;;
74483;SDS011;62942;52.462;10.846;2022-11-13T00:34:40;48.1;;;76;;
74483;SDS011;62942;52.462;10.846;2022-11-13T00:35:40;48.1;;;76.6;;
74483;SDS011;62942;52.462;10.846;2022-11-13T00:36:50;47.9;;;75.9;;
74483;SDS011;62942;52.462;10.846;2022-11-13T00:38:00;47.8;;;74.9;;
74483;SDS011;62942;52.462;10.846;2022-11-13T00:39:00;47.7;;;75.3;;
74483;SDS011;62942;52.462;10.846;2022-11-13T00:40:10;48.9;;;79.6;;
74483;SDS011;62942;52.462;10.846;2022-11-13T00:41:20;48.7;;;84.2;;
74483;SDS011;62942;52.462;10.846;2022-11-13T00:42:30;49;;;81.6;;
74483;SDS011;62942;52.462;10.846;2022-11-13T00:43:40;49.4;;;81.2;;
74483;SDS011;62942;52.462;10.846;2022-11-13T00:44:50;49.2;;;84.1;;
74483;SDS011;62942;52.462;10.846;2022-11-13T00:46:00;49.6;;;85;;
74483;SDS011;62942;52.462;10.846;2022-11-13T00:47:00;49.5;;;83.7;;
74483;SDS011;62942;52.462;10.846;2022-11-13T00:48:01;50.7;;;90;;
74483;SDS011;62942;52.462;10.846;2022-11-13T00:49:10;50.1;;;89.9;;
74483;SDS011;62942;52.462;10.846;2022-11-13T00:50:20;50.6;;;94.3;;
74483;SDS011;62942;52.462;10.846;2022-11-13T00:51:20;50.5;;;93.1;;
74483;SDS011;62942;52.462;10.846;2022-11-13T00:52:30;51.8;;;100.3;;
74483;SDS011;62942;52.462;10.846;2022-11-13T00:53:40;52.1;;;110;;
74483;SDS011;62942;52.462;10.846;2022-11-13T00:54:50;51.5;;;101.1;;
74483;SDS011;62942;52.462;10.846;2022-11-13T00:56:00;51.6;;;100;;
74483;SDS011;62942;52.462;10.846;2022-11-13T00:57:00;51.8;;;108.5;;
74483;SDS011;62942;52.462;10.846;2022-11-13T00:58:10;52.5;;;112.5;;
74483;SDS011;62942;52.462;10.846;2022-11-13T00:59:10;53.8;;;136.8;;
74483;SDS011;62942;52.462;10.846;2022-11-13T01:00:20;52.6;;;122.1;;
74483;SDS011;62942;52.462;10.846;2022-11-13T01:01:20;52.7;;;126;;
74483;SDS011;62942;52.462;10.846;2022-11-13T01:02:30;52.3;;;117.5;;
74483;SDS011;62942;52.462;10.846;2022-11-13T01:03:40;52.6;;;133.7;;
74483;SDS011;62942;52.462;10.846;2022-11-13T01:04:40;53.4;;;136.2;;
74483;SDS011;62942;52.462;10.846;2022-11-13T01:05:50;52.9;;;148.8;;
74483;SDS011;62942;52.462;10.846;2022-11-13T01:06:50;53.7;;;131.2;;
74483;SDS011;62942;52.462;10.846;2022-11-13T01:07:50;52.4;;;138;;
74483;SDS011;62942;52.462;10.846;2022-11-13T01:09:00;53;;;139.8;;
74483;SDS011;62942;52.462;10.846;2022-11-13T01:10:10;52.7;;;138.3;;
74483;SDS011;62942;52.462;10.846;2022-11-13T01:11:20;53.3;;;138.7;;
74483;SDS011;62942;52.462;10.846;2022-11-13T01:12:30;52.2;;;117.4;;
74483;SDS011;62942;52.462;10.846;2022-11-13T01:13:41;52.1;;;111.1;;
74483;SDS011;62942;52.462;10.846;2022-11-13T01:14:50;51.4;;;101.8;;
74483;SDS011;62942;52.462;10.846;2022-11-13T01:15:50;52;;;99.1;;
74483;SDS011;62942;52.462;10.846;2022-11-13T01:17:00;52.4;;;104.2;;
74483;SDS011;62942;52.462;10.846;2022-11-13T01:18:10;53.2;;;105;;
74483;SDS011;62942;52.462;10.846;2022-11-13T01:19:10;52.6;;;95.5;;
74483;SDS011;62942;52.462;10.846;2022-11-13T01:20:10;52.8;;;95.6;;
74483;SDS011;62942;52.462;10.846;2022-11-13T01:21:20;51.1;;;89.8;;
74483;SDS011;62942;52.462;10.846;2022-11-13T01:22:30;51.6;;;92.1;;
74483;SDS011;62942;52.462;10.846;2022-11-13T01:23:40;51.3;;;93;;
74483;SDS011;62942;52.462;10.846;2022-11-13T01:24:50;51.9;;;94.5;;
74483;SDS011;62942;52.462;10.846;2022-11-13T01:26:04;52.2;;;93.2;;
74483;SDS011;62942;52.462;10.846;2022-11-13T01:27:00;52.5;;;95.2;;
74483;SDS011;62942;52.462;10.846;2022-11-13T01:28:10;53.7;;;95.8;;
74483;SDS011;62942;52.462;10.846;2022-11-13T01:29:10;52.6;;;91.1;;
74483;SDS011;62942;52.462;10.846;2022-11-13T01:30:10;51.8;;;89.3;;
74483;SDS011;62942;52.462;10.846;2022-11-13T01:31:20;53.4;;;96.4;;
74483;SDS011;62942;52.462;10.846;2022-11-13T01:32:20;52.9;;;89.4;;
74483;SDS011;62942;52.462;10.846;2022-11-13T01:33:30;52.7;;;89.7;;
74483;SDS011;62942;52.462;10.846;2022-11-13T01:34:40;52.9;;;89.3;;
74483;SDS011;62942;52.462;10.846;2022-11-13T01:35:40;51.8;;;86.1;;
74483;SDS011;62942;52.462;10.846;2022-11-13T01:36:50;52.2;;;87.9;;
74483;SDS011;62942;52.462;10.846;2022-11-13T01:38:00;52.4;;;85.7;;
74483;SDS011;62942;52.462;10.846;2022-11-13T01:39:10;52.6;;;88.7;;
74483;SDS011;62942;52.462;10.846;2022-11-13T01:40:11;52;;;86.9;;
74483;SDS011;62942;52.462;10.846;2022-11-13T01:41:20;53;;;89.2;;
74483;SDS011;62942;52.462;10.846;2022-11-13T01:42:20;52.9;;;89.1;;
74483;SDS011;62942;52.462;10.846;2022-11-13T01:43:31;53.1;;;90.1;;
74483;SDS011;62942;52.462;10.846;2022-11-13T01:44:44;54;;;90;;
74483;SDS011;62942;52.462;10.846;2022-11-13T01:45:50;52.7;;;87.7;;
74483;SDS011;62942;52.462;10.846;2022-11-13T01:46:50;53.2;;;88.8;;
74483;SDS011;62942;52.462;10.846;2022-11-13T01:48:00;53.8;;;90.2;;
74483;SDS011;62942;52.462;10.846;2022-11-13T01:49:14;54.4;;;91.7;;
74483;SDS011;62942;52.462;10.846;2022-11-13T01:50:13;53.9;;;92.3;;
74483;SDS011;62942;52.462;10.846;2022-11-13T01:51:21;53.5;;;89.8;;
74483;SDS011;62942;52.462;10.846;2022-11-13T01:52:30;53.7;;;90.8;;
74483;SDS011;62942;52.462;10.846;2022-11-13T01:53:40;54.7;;;92.6;;
74483;SDS011;62942;52.462;10.846;2022-11-13T01:54:41;55;;;94.3;;
74483;SDS011;62942;52.462;10.846;2022-11-13T01:55:50;54.8;;;96.5;;
74483;SDS011;62942;52.462;10.846;2022-11-13T01:57:00;54.8;;;92.3;;
74483;SDS011;62942;52.462;10.846;2022-11-13T01:58:00;54.8;;;93.6;;
74483;SDS011;62942;52.462;10.846;2022-11-13T01:59:10;55.1;;;94.1;;
74483;SDS011;62942;52.462;10.846;2022-11-13T02:00:20;56.4;;;99.4;;
74483;SDS011;62942;52.462;10.846;2022-11-13T02:01:30;55.1;;;96.3;;
74483;SDS011;62942;52.462;10.846;2022-11-13T02:02:30;55;;;95.8;;
74483;SDS011;62942;52.462;10.846;2022-11-13T02:03:40;54.5;;;90.9;;
74483;SDS011;62942;52.462;10.846;2022-11-13T02:04:50;55;;;93.5;;
74483;SDS011;62942;52.462;10.846;2022-11-13T02:06:00;55.1;;;95.6;;
74483;SDS011;62942;52.462;10.846;2022-11-13T02:07:10;55.5;;;95;;
74483;SDS011;62942;52.462;10.846;2022-11-13T02:08:20;56.2;;;96.5;;
74483;SDS011;62942;52.462;10.846;2022-11-13T02:09:30;56.1;;;98.6;;
74483;SDS011;62942;52.462;10.846;2022-11-13T02:10:40;57.3;;;100.9;;
74483;SDS011;62942;52.462;10.846;2022-11-13T02:11:40;57;;;98.3;;
74483;SDS011;62942;52.462;10.846;2022-11-13T02:12:40;56.6;;;99.8;;
74483;SDS011;62942;52.462;10.846;2022-11-13T02:13:50;56.4;;;95.8;;
74483;SDS011;62942;52.462;10.846;2022-11-13T02:15:00;56.7;;;98.6;;
74483;SDS011;62942;52.462;10.846;2022-11-13T02:16:00;58.1;;;103.7;;
74483;SDS011;62942;52.462;10.846;2022-11-13T02:17:10;57.8;;;101.3;;
74483;SDS011;62942;52.462;10.846;2022-11-13T02:18:20;57.9;;;101.7;;
74483;SDS011;62942;52.462;10.846;2022-11-13T02:19:21;58.2;;;101;;
74483;SDS011;62942;52.462;10.846;2022-11-13T02:20:31;57.3;;;100.8;;
74483;SDS011;62942;52.462;10.846;2022-11-13T02:21:40;58.9;;;104.3;;
74483;SDS011;62942;52.462;10.846;2022-11-13T02:22:50;58.6;;;102.5;;
74483;SDS011;62942;52.462;10.846;2022-11-13T02:25:10;59.7;;;108.4;;
74483;SDS011;62942;52.462;10.846;2022-11-13T02:26:10;59.3;;;108.6;;
74483;SDS011;62942;52.462;10.846;2022-11-13T02:27:21;58.4;;;103.7;;
74483;SDS011;62942;52.462;10.846;2022-11-13T02:28:20;58.7;;;104.1;;
74483;SDS011;62942;52.462;10.846;2022-11-13T02:29:30;59.2;;;103.9;;
74483;SDS011;62942;52.462;10.846;2022-11-13T02:30:40;58.4;;;105.4;;
74483;SDS011;62942;52.462;10.846;2022-11-13T02:31:40;57.3;;;100.3;;
74483;SDS011;62942;52.462;10.846;2022-11-13T02:32:41;58.2;;;100.6;;
74483;SDS011;62942;52.462;10.846;2022-11-13T02:33:50;58.3;;;99.8;;
74483;SDS011;62942;52.462;10.846;2022-11-13T02:35:00;58;;;99;;
74483;SDS011;62942;52.462;10.846;2022-11-13T02:36:10;58;;;101.5;;
74483;SDS011;62942;52.462;10.846;2022-11-13T02:37:20;58.2;;;102.3;;
74483;SDS011;62942;52.462;10.846;2022-11-13T02:38:30;58.7;;;97.8;;
74483;SDS011;62942;52.462;10.846;2022-11-13T02:39:40;57.7;;;99.1;;
74483;SDS011;62942;52.462;10.846;2022-11-13T02:40:50;59.3;;;105.8;;
74483;SDS011;62942;52.462;10.846;2022-11-13T02:42:00;60.9;;;105.7;;
74483;SDS011;62942;52.462;10.846;2022-11-13T02:43:00;58.9;;;101;;
74483;SDS011;62942;52.462;10.846;2022-11-13T02:44:10;59.2;;;102.3;;
74483;SDS011;62942;52.462;10.846;2022-11-13T02:45:10;59.1;;;100.1;;
74483;SDS011;62942;52.462;10.846;2022-11-13T02:46:10;60.2;;;102.4;;
74483;SDS011;62942;52.462;10.846;2022-11-13T02:47:20;59.6;;;101.2;;
74483;SDS011;62942;52.462;10.846;2022-11-13T02:48:20;59.3;;;99.2;;
74483;SDS011;62942;52.462;10.846;2022-11-13T02:49:30;59.5;;;98.7;;
74483;SDS011;62942;52.462;10.846;2022-11-13T02:50:40;59.7;;;103.1;;
74483;SDS011;62942;52.462;10.846;2022-11-13T02:51:50;58.3;;;98.2;;
74483;SDS011;62942;52.462;10.846;2022-11-13T02:52:50;58.7;;;100;;
74483;SDS011;62942;52.462;10.846;2022-11-13T02:54:00;58.8;;;99.2;;
74483;SDS011;62942;52.462;10.846;2022-11-13T02:55:10;59.3;;;97.4;;
74483;SDS011;62942;52.462;10.846;2022-11-13T02:56:10;58.8;;;97.2;;
74483;SDS011;62942;52.462;10.846;2022-11-13T02:57:20;58.6;;;98.2;;
74483;SDS011;62942;52.462;10.846;2022-11-13T02:58:30;59.1;;;98.8;;
74483;SDS011;62942;52.462;10.846;2022-11-13T02:59:30;59;;;98.1;;
74483;SDS011;62942;52.462;10.846;2022-11-13T03:00:40;59.8;;;98.5;;
74483;SDS011;62942;52.462;10.846;2022-11-13T03:01:50;59.4;;;100.5;;
74483;SDS011;62942;52.462;10.846;2022-11-13T03:03:00;59.6;;;99.7;;
74483;SDS011;62942;52.462;10.846;2022-11-13T03:04:00;59.9;;;99.9;;
74483;SDS011;62942;52.462;10.846;2022-11-13T03:05:10;60.2;;;99.4;;
74483;SDS011;62942;52.462;10.846;2022-11-13T03:06:10;59.6;;;100.3;;
74483;SDS011;62942;52.462;10.846;2022-11-13T03:07:20;61;;;104.1;;
74483;SDS011;62942;52.462;10.846;2022-11-13T03:08:30;60.5;;;99.3;;
74483;SDS011;62942;52.462;10.846;2022-11-13T03:09:30;61.4;;;101.2;;
74483;SDS011;62942;52.462;10.846;2022-11-13T03:10:30;60.4;;;100.5;;
74483;SDS011;62942;52.462;10.846;2022-11-13T03:11:41;60.8;;;100.6;;
74483;SDS011;62942;52.462;10.846;2022-11-13T03:12:50;61.2;;;100.4;;
74483;SDS011;62942;52.462;10.846;2022-11-13T03:13:50;60.5;;;99.9;;
74483;SDS011;62942;52.462;10.846;2022-11-13T03:15:00;59.7;;;101.8;;
74483;SDS011;62942;52.462;10.846;2022-11-13T03:16:04;60.1;;;101.4;;
74483;SDS011;62942;52.462;10.846;2022-11-13T03:17:10;59.1;;;99.2;;
74483;SDS011;62942;52.462;10.846;2022-11-13T03:18:10;60.5;;;98.4;;
74483;SDS011;62942;52.462;10.846;2022-11-13T03:19:10;60;;;99.1;;
74483;SDS011;62942;52.462;10.846;2022-11-13T03:20:20;58.5;;;98.7;;
74483;SDS011;62942;52.462;10.846;2022-11-13T03:21:20;60.9;;;102.4;;
74483;SDS011;62942;52.462;10.846;2022-11-13T03:22:30;59.7;;;98.3;;
74483;SDS011;62942;52.462;10.846;2022-11-13T03:23:40;59.5;;;99.5;;
74483;SDS011;62942;52.462;10.846;2022-11-13T03:24:50;59.5;;;100.8;;
74483;SDS011;62942;52.462;10.846;2022-11-13T03:26:01;59.7;;;101.3;;
74483;SDS011;62942;52.462;10.846;2022-11-13T03:27:09;60.7;;;98.9;;
74483;SDS011;62942;52.462;10.846;2022-11-13T03:28:20;59.5;;;98.8;;
74483;SDS011;62942;52.462;10.846;2022-11-13T03:29:30;60.8;;;103.6;;
74483;SDS011;62942;52.462;10.846;2022-11-13T03:30:40;60.4;;;100.1;;
74483;SDS011;62942;52.462;10.846;2022-11-13T03:31:39;60.2;;;100.8;;
74483;SDS011;62942;52.462;10.846;2022-11-13T03:32:51;61;;;101.4;;
74483;SDS011;62942;52.462;10.846;2022-11-13T03:33:51;60.8;;;98.2;;
74483;SDS011;62942;52.462;10.846;2022-11-13T03:35:00;61.2;;;105.4;;
74483;SDS011;62942;52.462;10.846;2022-11-13T03:36:10;61;;;100.9;;
74483;SDS011;62942;52.462;10.846;2022-11-13T03:37:09;60.7;;;103.2;;
74483;SDS011;62942;52.462;10.846;2022-11-13T03:38:20;61.8;;;104.8;;
74483;SDS011;62942;52.462;10.846;2022-11-13T03:39:20;62.1;;;105.6;;
74483;SDS011;62942;52.462;10.846;2022-11-13T03:40:30;61.9;;;103.2;;
74483;SDS011;62942;52.462;10.846;2022-11-13T03:41:30;62.4;;;106.5;;
74483;SDS011;62942;52.462;10.846;2022-11-13T03:42:39;63.5;;;108.2;;
74483;SDS011;62942;52.462;10.846;2022-11-13T03:43:49;65.3;;;110.4;;
74483;SDS011;62942;52.462;10.846;2022-11-13T03:44:49;64.2;;;109.1;;
74483;SDS011;62942;52.462;10.846;2022-11-13T03:46:00;65.4;;;110.8;;
74483;SDS011;62942;52.462;10.846;2022-11-13T03:47:10;68.2;;;120.8;;
74483;SDS011;62942;52.462;10.846;2022-11-13T03:48:09;67.2;;;118.8;;
74483;SDS011;62942;52.462;10.846;2022-11-13T03:49:19;68;;;116.7;;
74483;SDS011;62942;52.462;10.846;2022-11-13T03:50:19;67.5;;;123.1;;
74483;SDS011;62942;52.462;10.846;2022-11-13T03:51:29;66.6;;;118.8;;
74483;SDS011;62942;52.462;10.846;2022-11-13T03:52:39;68.3;;;119.5;;
74483;SDS011;62942;52.462;10.846;2022-11-13T03:53:49;67.6;;;117.9;;
74483;SDS011;62942;52.462;10.846;2022-11-13T03:54:49;68.3;;;124;;
74483;SDS011;62942;52.462;10.846;2022-11-13T03:55:59;71.2;;;131.2;;
74483;SDS011;62942;52.462;10.846;2022-11-13T03:57:09;69.6;;;123.8;;
74483;SDS011;62942;52.462;10.846;2022-11-13T03:58:10;70;;;128.7;;
74483;SDS011;62942;52.462;10.846;2022-11-13T03:59:19;71.8;;;138.7;;
74483;SDS011;62942;52.462;10.846;2022-11-13T04:00:30;72.7;;;141.6;;
74483;SDS011;62942;52.462;10.846;2022-11-13T04:01:39;71.9;;;142.4;;
74483;SDS011;62942;52.462;10.846;2022-11-13T04:02:49;72.9;;;144.5;;
74483;SDS011;62942;52.462;10.846;2022-11-13T04:03:59;74;;;145.6;;
74483;SDS011;62942;52.462;10.846;2022-11-13T04:04:59;74.9;;;156.9;;
74483;SDS011;62942;52.462;10.846;2022-11-13T04:06:09;75.9;;;168.4;;
74483;SDS011;62942;52.462;10.846;2022-11-13T04:07:09;77;;;178;;
74483;SDS011;62942;52.462;10.846;2022-11-13T04:08:19;76.4;;;167.4;;
74483;SDS011;62942;52.462;10.846;2022-11-13T04:09:20;75.6;;;166.9;;
74483;SDS011;62942;52.462;10.846;2022-11-13T04:10:20;76.4;;;178.1;;
74483;SDS011;62942;52.462;10.846;2022-11-13T04:11:29;76.9;;;177.2;;
74483;SDS011;62942;52.462;10.846;2022-11-13T04:12:30;77.3;;;185.2;;
74483;SDS011;62942;52.462;10.846;2022-11-13T04:13:29;79.5;;;212.2;;
74483;SDS011;62942;52.462;10.846;2022-11-13T04:14:39;78.5;;;209.9;;
74483;SDS011;62942;52.462;10.846;2022-11-13T04:15:49;80.6;;;234.8;;
74483;SDS011;62942;52.462;10.846;2022-11-13T04:16:59;78.7;;;243.3;;
74483;SDS011;62942;52.462;10.846;2022-11-13T04:18:10;81.2;;;241.4;;
74483;SDS011;62942;52.462;10.846;2022-11-13T04:19:10;76;;;205;;
74483;SDS011;62942;52.462;10.846;2022-11-13T04:20:19;79.8;;;234.4;;
74483;SDS011;62942;52.462;10.846;2022-11-13T04:21:29;76.1;;;206.9;;
74483;SDS011;62942;52.462;10.846;2022-11-13T04:22:39;77.8;;;206.8;;
74483;SDS011;62942;52.462;10.846;2022-11-13T04:23:49;77.8;;;218.9;;
74483;SDS011;62942;52.462;10.846;2022-11-13T04:24:50;77.8;;;213.8;;
74483;SDS011;62942;52.462;10.846;2022-11-13T04:25:59;74.6;;;191.4;;
74483;SDS011;62942;52.462;10.846;2022-11-13T04:27:09;76.9;;;214.6;;
74483;SDS011;62942;52.462;10.846;2022-11-13T04:28:09;79.7;;;231.1;;
74483;SDS011;62942;52.462;10.846;2022-11-13T04:29:09;76.4;;;208.7;;
74483;SDS011;62942;52.462;10.846;2022-11-13T04:30:19;75.8;;;216.3;;
74483;SDS011;62942;52.462;10.846;2022-11-13T04:31:29;74.3;;;188.4;;
74483;SDS011;62942;52.462;10.846;2022-11-13T04:32:39;73.2;;;196.6;;
74483;SDS011;62942;52.462;10.846;2022-11-13T04:33:49;75.1;;;198.7;;
74483;SDS011;62942;52.462;10.846;2022-11-13T04:34:59;72.3;;;179.4;;
74483;SDS011;62942;52.462;10.846;2022-11-13T04:36:09;73.3;;;190.6;;
74483;SDS011;62942;52.462;10.846;2022-11-13T04:37:09;82.3;;;276.6;;
74483;SDS011;62942;52.462;10.846;2022-11-13T04:38:10;73.4;;;188.8;;
74483;SDS011;62942;52.462;10.846;2022-11-13T04:39:19;73.2;;;203;;
74483;SDS011;62942;52.462;10.846;2022-11-13T04:40:20;71.8;;;177;;
74483;SDS011;62942;52.462;10.846;2022-11-13T04:41:29;72.2;;;184.3;;
74483;SDS011;62942;52.462;10.846;2022-11-13T04:42:29;69.7;;;163.2;;
74483;SDS011;62942;52.462;10.846;2022-11-13T04:43:39;69.5;;;169.8;;
74483;SDS011;62942;52.462;10.846;2022-11-13T04:44:39;66.9;;;156.5;;
74483;SDS011;62942;52.462;10.846;2022-11-13T04:45:50;72;;;199.5;;
74483;SDS011;62942;52.462;10.846;2022-11-13T04:46:59;71.3;;;181.5;;
74483;SDS011;62942;52.462;10.846;2022-11-13T04:47:59;70.9;;;191.8;;
74483;SDS011;62942;52.462;10.846;2022-11-13T04:48:59;70.1;;;180.7;;
74483;SDS011;62942;52.462;10.846;2022-11-13T04:50:10;68.9;;;173.1;;
74483;SDS011;62942;52.462;10.846;2022-11-13T04:51:19;77.1;;;239.6;;
74483;SDS011;62942;52.462;10.846;2022-11-13T04:52:29;72.3;;;205.7;;
74483;SDS011;62942;52.462;10.846;2022-11-13T04:53:29;67.9;;;169.3;;
74483;SDS011;62942;52.462;10.846;2022-11-13T04:54:39;66;;;164.2;;
74483;SDS011;62942;52.462;10.846;2022-11-13T04:55:50;63.9;;;139.8;;
74483;SDS011;62942;52.462;10.846;2022-11-13T04:56:59;67.7;;;173.1;;
74483;SDS011;62942;52.462;10.846;2022-11-13T04:58:09;65.2;;;156.7;;
74483;SDS011;62942;52.462;10.846;2022-11-13T04:59:09;69.3;;;184.9;;
74483;SDS011;62942;52.462;10.846;2022-11-13T05:00:19;65.1;;;152.3;;
74483;SDS011;62942;52.462;10.846;2022-11-13T05:01:20;63.7;;;159.7;;
74483;SDS011;62942;52.462;10.846;2022-11-13T05:02:29;66.2;;;174.6;;
74483;SDS011;62942;52.462;10.846;2022-11-13T05:03:29;65.5;;;181.8;;
74483;SDS011;62942;52.462;10.846;2022-11-13T05:04:29;67.6;;;190.4;;
74483;SDS011;62942;52.462;10.846;2022-11-13T05:05:39;63.8;;;160.1;;
74483;SDS011;62942;52.462;10.846;2022-11-13T05:06:49;59.7;;;137.3;;
74483;SDS011;62942;52.462;10.846;2022-11-13T05:07:59;59.9;;;150.8;;
74483;SDS011;62942;52.462;10.846;2022-11-13T05:08:59;61.1;;;152.6;;
74483;SDS011;62942;52.462;10.846;2022-11-13T05:10:09;61.7;;;155.6;;
74483;SDS011;62942;52.462;10.846;2022-11-13T05:11:19;57.7;;;134.7;;
74483;SDS011;62942;52.462;10.846;2022-11-13T05:12:29;59.2;;;154.8;;
74483;SDS011;62942;52.462;10.846;2022-11-13T05:13:30;56.7;;;143.3;;
74483;SDS011;62942;52.462;10.846;2022-11-13T05:14:39;58.6;;;149.4;;
74483;SDS011;62942;52.462;10.846;2022-11-13T05:15:49;56.6;;;142.8;;
74483;SDS011;62942;52.462;10.846;2022-11-13T05:16:59;55.8;;;134.7;;
74483;SDS011;62942;52.462;10.846;2022-11-13T05:18:09;55.5;;;136.8;;
74483;SDS011;62942;52.462;10.846;2022-11-13T05:19:19;57.4;;;156.4;;
74483;SDS011;62942;52.462;10.846;2022-11-13T05:20:19;54.4;;;140.2;;
74483;SDS011;62942;52.462;10.846;2022-11-13T05:21:29;55;;;142.4;;
74483;SDS011;62942;52.462;10.846;2022-11-13T05:22:29;55;;;136;;
74483;SDS011;62942;52.462;10.846;2022-11-13T05:23:39;57.7;;;164.1;;
74483;SDS011;62942;52.462;10.846;2022-11-13T05:24:39;54.4;;;141.5;;
74483;SDS011;62942;52.462;10.846;2022-11-13T05:25:49;55;;;145.4;;
74483;SDS011;62942;52.462;10.846;2022-11-13T05:26:59;54.1;;;149.7;;
74483;SDS011;62942;52.462;10.846;2022-11-13T05:28:09;55.4;;;155.1;;
74483;SDS011;62942;52.462;10.846;2022-11-13T05:29:19;54.3;;;150.5;;
74483;SDS011;62942;52.462;10.846;2022-11-13T05:30:29;53.9;;;142.3;;
74483;SDS011;62942;52.462;10.846;2022-11-13T05:31:39;52.1;;;143.9;;
74483;SDS011;62942;52.462;10.846;2022-11-13T05:32:39;53.6;;;158.8;;
74483;SDS011;62942;52.462;10.846;2022-11-13T05:33:40;52.7;;;144.3;;
74483;SDS011;62942;52.462;10.846;2022-11-13T05:34:49;54.8;;;158.4;;
74483;SDS011;62942;52.462;10.846;2022-11-13T05:36:00;52.1;;;143.9;;
74483;SDS011;62942;52.462;10.846;2022-11-13T05:37:09;52.4;;;161.2;;
74483;SDS011;62942;52.462;10.846;2022-11-13T05:38:19;51.8;;;139.4;;
74483;SDS011;62942;52.462;10.846;2022-11-13T05:39:29;55;;;178.5;;
74483;SDS011;62942;52.462;10.846;2022-11-13T05:40:39;52.6;;;150.5;;
74483;SDS011;62942;52.462;10.846;2022-11-13T05:41:49;50.9;;;139.2;;
74483;SDS011;62942;52.462;10.846;2022-11-13T05:42:51;51.8;;;143;;
74483;SDS011;62942;52.462;10.846;2022-11-13T05:43:59;56.3;;;187.1;;
74483;SDS011;62942;52.462;10.846;2022-11-13T05:45:09;53.2;;;164;;
74483;SDS011;62942;52.462;10.846;2022-11-13T05:46:20;54;;;169.2;;
74483;SDS011;62942;52.462;10.846;2022-11-13T05:47:31;54.9;;;194.1;;
74483;SDS011;62942;52.462;10.846;2022-11-13T05:48:30;56.3;;;198.8;;
74483;SDS011;62942;52.462;10.846;2022-11-13T05:49:39;55.3;;;190.2;;
74483;SDS011;62942;52.462;10.846;2022-11-13T05:50:49;56.1;;;196.7;;
74483;SDS011;62942;52.462;10.846;2022-11-13T05:51:49;56.8;;;206.6;;
74483;SDS011;62942;52.462;10.846;2022-11-13T05:52:49;57.7;;;205.6;;
74483;SDS011;62942;52.462;10.846;2022-11-13T05:53:59;59.5;;;222.2;;
74483;SDS011;62942;52.462;10.846;2022-11-13T05:54:59;59.6;;;225.8;;
74483;SDS011;62942;52.462;10.846;2022-11-13T05:55:59;61.9;;;249.6;;
74483;SDS011;62942;52.462;10.846;2022-11-13T05:57:09;61.1;;;251.9;;
74483;SDS011;62942;52.462;10.846;2022-11-13T05:58:19;60.7;;;249.7;;
74483;SDS011;62942;52.462;10.846;2022-11-13T05:59:29;63.4;;;252;;
74483;SDS011;62942;52.462;10.846;2022-11-13T06:00:29;64.9;;;268.6;;
74483;SDS011;62942;52.462;10.846;2022-11-13T06:01:39;64.9;;;282.5;;
74483;SDS011;62942;52.462;10.846;2022-11-13T06:02:49;64.3;;;269;;
74483;SDS011;62942;52.462;10.846;2022-11-13T06:03:50;63;;;267.2;;
74483;SDS011;62942;52.462;10.846;2022-11-13T06:04:59;63.3;;;255.6;;
74483;SDS011;62942;52.462;10.846;2022-11-13T06:05:59;62.4;;;257.4;;
74483;SDS011;62942;52.462;10.846;2022-11-13T06:07:09;64.9;;;280.4;;
74483;SDS011;62942;52.462;10.846;2022-11-13T06:08:09;67.6;;;308.2;;
74483;SDS011;62942;52.462;10.846;2022-11-13T06:09:19;68.9;;;311.8;;
74483;SDS011;62942;52.462;10.846;2022-11-13T06:10:29;71.7;;;349.1;;
74483;SDS011;62942;52.462;10.846;2022-11-13T06:11:39;69.9;;;327.7;;
74483;SDS011;62942;52.462;10.846;2022-11-13T06:12:49;71.3;;;341.7;;
74483;SDS011;62942;52.462;10.846;2022-11-13T06:13:59;70.4;;;337.7;;
74483;SDS011;62942;52.462;10.846;2022-11-13T06:15:09;67.9;;;315.4;;
74483;SDS011;62942;52.462;10.846;2022-11-13T06:16:10;68.7;;;333;;
74483;SDS011;62942;52.462;10.846;2022-11-13T06:17:09;69.4;;;342.7;;
74483;SDS011;62942;52.462;10.846;2022-11-13T06:18:20;65.7;;;291.2;;
74483;SDS011;62942;52.462;10.846;2022-11-13T06:19:19;68.7;;;348.8;;
74483;SDS011;62942;52.462;10.846;2022-11-13T06:20:29;65.8;;;306.7;;
74483;SDS011;62942;52.462;10.846;2022-11-13T06:21:39;65.8;;;332.7;;
74483;SDS011;62942;52.462;10.846;2022-11-13T06:22:49;64.1;;;290.4;;
74483;SDS011;62942;52.462;10.846;2022-11-13T06:23:59;69.2;;;349.3;;
74483;SDS011;62942;52.462;10.846;2022-11-13T06:25:09;65.4;;;315.4;;
74483;SDS011;62942;52.462;10.846;2022-11-13T06:26:10;67.4;;;344.6;;
74483;SDS011;62942;52.462;10.846;2022-11-13T06:27:19;62.3;;;305.9;;
74483;SDS011;62942;52.462;10.846;2022-11-13T06:28:29;63;;;324.5;;
74483;SDS011;62942;52.462;10.846;2022-11-13T06:29:29;63.5;;;334.6;;
74483;SDS011;62942;52.462;10.846;2022-11-13T06:30:39;63.5;;;312.4;;
74483;SDS011;62942;52.462;10.846;2022-11-13T06:31:49;61.5;;;306.1;;
74483;SDS011;62942;52.462;10.846;2022-11-13T06:32:50;66.9;;;355.5;;
74483;SDS011;62942;52.462;10.846;2022-11-13T06:33:59;63.3;;;338.2;;
74483;SDS011;62942;52.462;10.846;2022-11-13T06:35:09;62.8;;;322.8;;
74483;SDS011;62942;52.462;10.846;2022-11-13T06:36:20;63.9;;;351.4;;